createdAt,value
2018-12-03T00:00:27.800Z,97559.20
2018-12-03T00:02:56.723Z,97561.84
2018-12-03T00:05:25.998Z,97557.46
2018-12-03T00:07:57.003Z,97541.52
2018-12-03T00:10:26.883Z,97532.82
2018-12-03T00:12:55.588Z,97533.34
2018-12-03T00:15:24.786Z,97544.83
2018-12-03T00:17:54.765Z,97540.76
2018-12-03T00:20:23.635Z,97543.09
2018-12-03T00:22:54.121Z,97540.99
2018-12-03T00:25:23.643Z,97554.50
2018-12-03T00:27:53.136Z,97544.71
2018-12-03T00:30:22.170Z,97553.52
2018-12-03T00:32:50.913Z,97553.31
2018-12-03T00:35:19.603Z,97555.64
2018-12-03T00:37:48.146Z,97561.92
2018-12-03T00:40:17.888Z,97550.00
2018-12-03T00:42:46.938Z,97550.70
2018-12-03T00:45:15.676Z,97570.20
2018-12-03T00:47:44.819Z,97558.52
2018-12-03T00:50:13.620Z,97558.82
2018-12-03T00:52:42.591Z,97562.18
2018-12-03T00:55:13.696Z,97554.37
2018-12-03T00:57:42.538Z,97558.77
2018-12-03T01:00:12.096Z,97579.66
2018-12-03T01:02:41.133Z,97573.37
2018-12-03T01:05:11.126Z,97568.24
2018-12-03T01:07:41.029Z,97577.77
2018-12-03T01:10:11.383Z,97570.42
2018-12-03T01:12:40.039Z,97567.61
2018-12-03T01:15:09.849Z,97547.75
2018-12-03T01:17:38.863Z,97557.50
2018-12-03T01:20:08.993Z,97556.16
2018-12-03T01:22:38.003Z,97550.83
2018-12-03T01:25:07.280Z,97541.70
2018-12-03T01:27:35.946Z,97525.44
2018-12-03T01:30:05.304Z,97525.15
2018-12-03T01:32:34.506Z,97551.19
2018-12-03T01:35:03.438Z,97542.80
2018-12-03T01:37:32.733Z,97556.97
2018-12-03T01:40:01.652Z,97544.27
2018-12-03T01:42:30.943Z,97544.34
2018-12-03T01:44:59.926Z,97538.19
2018-12-03T01:47:29.000Z,97535.94
2018-12-03T01:49:58.133Z,97536.45
2018-12-03T01:52:26.844Z,97536.53
2018-12-03T01:54:55.821Z,97543.64
2018-12-03T01:57:25.094Z,97537.80
2018-12-03T01:59:53.893Z,97537.00
2018-12-03T02:02:23.073Z,97537.75
2018-12-03T02:04:52.312Z,97552.75
2018-12-03T02:07:21.564Z,97544.82
2018-12-03T02:09:51.773Z,97546.75
2018-12-03T02:12:20.576Z,97543.20
2018-12-03T02:14:49.760Z,97542.06
2018-12-03T02:17:19.342Z,97540.16
2018-12-03T02:19:48.450Z,97549.13
2018-12-03T02:22:17.058Z,97542.66
2018-12-03T02:24:46.484Z,97545.85
2018-12-03T02:27:16.049Z,97520.82
2018-12-03T02:29:44.917Z,97535.18
2018-12-03T02:32:14.468Z,97522.63
2018-12-03T02:34:43.763Z,97518.48
2018-12-03T02:37:12.563Z,97522.78
2018-12-03T02:39:41.778Z,97522.91
2018-12-03T02:42:11.173Z,97529.09
2018-12-03T02:44:40.100Z,97518.70
2018-12-03T02:47:09.046Z,97512.21
2018-12-03T02:49:37.932Z,97512.34
2018-12-03T02:52:06.450Z,97515.71
2018-12-03T02:54:35.420Z,97502.84
2018-12-03T02:57:04.420Z,97496.60
2018-12-03T02:59:33.172Z,97497.45
2018-12-03T03:02:02.290Z,97490.16
2018-12-03T03:04:31.560Z,97497.48
2018-12-03T03:07:00.615Z,97480.27
2018-12-03T03:09:29.468Z,97484.85
2018-12-03T03:11:58.388Z,97490.27
2018-12-03T03:14:27.273Z,97488.25
2018-12-03T03:16:56.172Z,97476.34
2018-12-03T03:19:24.795Z,97467.89
2018-12-03T03:21:54.880Z,97460.31
2018-12-03T03:24:23.762Z,97473.25
2018-12-03T03:26:52.466Z,97462.95
2018-12-03T03:29:21.285Z,97445.50
2018-12-03T03:31:50.272Z,97449.21
2018-12-03T03:34:19.203Z,97457.86
2018-12-03T03:36:48.621Z,97461.17
2018-12-03T03:39:17.631Z,97462.12
2018-12-03T03:41:46.253Z,97464.50
2018-12-03T03:44:14.864Z,97458.59
2018-12-03T03:46:43.750Z,97439.67
2018-12-03T03:49:12.474Z,97439.40
2018-12-03T03:51:41.234Z,97432.81
2018-12-03T03:54:12.142Z,97420.45
2018-12-03T03:56:40.813Z,97437.38
2018-12-03T03:59:09.623Z,97432.13
2018-12-03T04:01:38.465Z,97423.53
2018-12-03T04:04:07.324Z,97406.91
2018-12-03T04:06:36.362Z,97401.90
2018-12-03T04:09:06.675Z,97415.37
2018-12-03T04:11:35.352Z,97395.37
2018-12-03T04:14:04.081Z,97397.34
2018-12-03T04:16:32.947Z,97407.67
2018-12-03T04:19:01.560Z,97395.09
2018-12-03T04:21:30.142Z,97400.25
2018-12-03T04:23:58.964Z,97407.14
2018-12-03T04:26:27.879Z,97403.94
2018-12-03T04:28:56.548Z,97415.88
2018-12-03T04:31:28.603Z,97424.08
2018-12-03T04:33:58.152Z,97413.32
2018-12-03T04:36:26.920Z,97422.48
2018-12-03T04:38:55.688Z,97418.59
2018-12-03T04:41:24.507Z,97423.25
2018-12-03T04:43:53.241Z,97435.86
2018-12-03T04:46:23.278Z,97431.65
2018-12-03T04:48:53.343Z,97441.52
2018-12-03T04:51:22.631Z,97438.48
2018-12-03T04:53:51.644Z,97445.27
2018-12-03T04:56:20.390Z,97447.64
2018-12-03T04:58:49.170Z,97453.99
2018-12-03T05:01:18.605Z,97464.52
2018-12-03T05:03:47.253Z,97461.87
2018-12-03T05:06:16.043Z,97461.31
2018-12-03T05:08:44.772Z,97469.74
2018-12-03T05:11:13.520Z,97469.88
2018-12-03T05:13:42.101Z,97461.83
2018-12-03T05:16:11.167Z,97457.91
2018-12-03T05:18:39.883Z,97448.35
2018-12-03T05:21:08.464Z,97449.58
2018-12-03T05:23:37.386Z,97460.12
2018-12-03T05:26:06.561Z,97453.72
2018-12-03T05:28:35.186Z,97451.08
2018-12-03T05:31:03.961Z,97441.05
2018-12-03T05:33:32.619Z,97432.59
2018-12-03T05:36:01.406Z,97428.73
2018-12-03T05:38:30.328Z,97433.17
2018-12-03T05:40:58.915Z,97431.59
2018-12-03T05:43:28.328Z,97436.89
2018-12-03T05:45:58.618Z,97441.86
2018-12-03T05:48:28.057Z,97447.52
2018-12-03T05:50:57.314Z,97444.84
2018-12-03T05:53:26.509Z,97459.19
2018-12-03T05:55:55.499Z,97464.55
2018-12-03T05:58:24.079Z,97469.12
2018-12-03T06:00:53.355Z,97463.20
2018-12-03T06:03:22.253Z,97466.44
2018-12-03T06:05:51.222Z,97473.51
2018-12-03T06:08:20.347Z,97471.23
2018-12-03T06:10:49.409Z,97467.20
2018-12-03T06:13:18.690Z,97468.00
2018-12-03T06:15:47.784Z,97467.48
2018-12-03T06:18:16.566Z,97482.13
2018-12-03T06:20:45.328Z,97486.30
2018-12-03T06:23:14.414Z,97484.13
2018-12-03T06:25:43.726Z,97477.58
2018-12-03T06:28:12.999Z,97481.02
2018-12-03T06:30:42.686Z,97484.14
2018-12-03T06:33:12.199Z,97476.59
2018-12-03T06:35:41.313Z,97489.86
2018-12-03T06:38:15.184Z,97484.41
2018-12-03T06:40:39.730Z,97492.70
2018-12-03T06:43:08.342Z,97493.80
2018-12-03T06:45:37.480Z,97494.63
2018-12-03T06:48:06.572Z,97498.27
2018-12-03T06:50:35.370Z,97494.75
2018-12-03T06:53:04.992Z,97500.64
2018-12-03T06:55:34.610Z,97500.05
2018-12-03T06:58:04.012Z,97494.88
2018-12-03T07:00:33.132Z,97501.52
2018-12-03T07:03:02.089Z,97495.80
2018-12-03T07:05:31.302Z,97495.55
2018-12-03T07:08:00.517Z,97474.66
2018-12-03T07:10:29.442Z,97484.89
2018-12-03T07:12:58.674Z,97491.64
2018-12-03T07:15:27.822Z,97491.76
2018-12-03T07:17:56.910Z,97487.33
2018-12-03T07:20:25.926Z,97472.63
2018-12-03T07:22:55.270Z,97476.94
2018-12-03T07:25:24.795Z,97481.55
2018-12-03T07:27:53.833Z,97473.73
2018-12-03T07:30:23.150Z,97469.47
2018-12-03T07:32:52.070Z,97467.75
2018-12-03T07:35:21.317Z,97484.18
2018-12-03T07:37:51.760Z,97481.84
2018-12-03T07:40:21.592Z,97473.03
2018-12-03T07:42:51.940Z,97459.91
2018-12-03T07:45:21.132Z,97459.46
2018-12-03T07:47:50.181Z,97462.42
2018-12-03T07:50:19.475Z,97463.63
2018-12-03T07:52:48.549Z,97461.46
2018-12-03T07:55:17.742Z,97451.98
2018-12-03T07:57:46.815Z,97463.19
2018-12-03T08:00:17.419Z,97457.05
2018-12-03T08:02:46.811Z,97457.77
2018-12-03T08:05:16.110Z,97465.70
2018-12-03T08:07:45.743Z,97476.45
2018-12-03T08:10:14.696Z,97472.52
2018-12-03T08:12:43.867Z,97481.64
2018-12-03T08:15:13.075Z,97479.98
2018-12-03T08:17:41.729Z,97475.06
2018-12-03T08:20:17.579Z,97471.22
2018-12-03T08:22:47.608Z,97466.44
2018-12-03T08:25:17.989Z,97455.19
2018-12-03T08:27:49.359Z,97467.59
2018-12-03T08:30:18.756Z,97455.58
2018-12-03T08:32:48.132Z,97449.45
2018-12-03T08:35:17.801Z,97458.64
2018-12-03T08:37:46.895Z,97459.83
2018-12-03T08:40:16.543Z,97469.73
2018-12-03T08:42:45.207Z,97482.48
2018-12-03T08:45:16.512Z,97489.77
2018-12-03T08:47:45.457Z,97483.92
2018-12-03T08:50:14.447Z,97472.91
2018-12-03T08:52:43.457Z,97468.12
2018-12-03T08:55:12.761Z,97480.59
2018-12-03T08:57:41.961Z,97488.13
2018-12-03T09:00:11.620Z,97482.45
2018-12-03T09:02:41.039Z,97494.79
2018-12-03T09:05:11.457Z,97490.84
2018-12-03T09:07:41.614Z,97493.92
2018-12-03T09:10:11.638Z,97495.45
2018-12-03T09:12:40.514Z,97488.31
2018-12-03T09:15:11.157Z,97491.77
2018-12-03T09:17:39.997Z,97486.17
2018-12-03T09:20:10.116Z,97486.17
2018-12-03T09:22:39.343Z,97488.23
2018-12-03T09:25:11.613Z,97469.14
2018-12-03T09:27:40.710Z,97474.19
2018-12-03T09:30:10.490Z,97477.77
2018-12-03T09:32:39.364Z,97464.85
2018-12-03T09:35:09.872Z,97464.16
2018-12-03T09:37:39.832Z,97467.81
2018-12-03T09:40:10.395Z,97470.26
2018-12-03T09:42:39.376Z,97469.48
2018-12-03T09:48:15.949Z,97461.44
2018-12-03T09:50:45.099Z,97457.72
2018-12-03T09:53:14.707Z,97455.10
2018-12-03T09:55:45.185Z,97467.20
2018-12-03T09:58:15.005Z,97460.04
2018-12-03T10:00:43.886Z,97459.54
2018-12-03T10:03:13.382Z,97450.11
2018-12-03T10:05:42.713Z,97448.74
2018-12-03T10:08:11.620Z,97444.72
2018-12-03T10:10:40.567Z,97447.16
2018-12-03T10:13:10.206Z,97439.78
2018-12-03T10:18:12.665Z,97437.67
2018-12-03T10:20:51.220Z,97422.97
2018-12-03T10:23:23.815Z,97417.90
2018-12-03T10:25:52.958Z,97409.46
2018-12-03T10:28:22.135Z,97398.32
2018-12-03T10:30:51.150Z,97398.94
2018-12-03T10:33:19.974Z,97390.85
2018-12-03T10:35:48.907Z,97380.95
2018-12-03T10:38:18.354Z,97397.70
2018-12-03T10:40:47.220Z,97397.30
2018-12-03T10:43:16.494Z,97411.77
2018-12-03T10:45:47.505Z,97398.84
2018-12-03T10:48:16.350Z,97395.37
2018-12-03T10:50:45.155Z,97394.64
2018-12-03T10:56:23.340Z,97387.88
2018-12-03T11:05:20.002Z,97383.61
2018-12-03T11:07:49.096Z,97391.19
2018-12-03T11:10:18.577Z,97384.26
2018-12-03T11:12:48.585Z,97384.79
2018-12-03T11:15:17.410Z,97387.70
2018-12-03T11:17:46.254Z,97384.73
2018-12-03T11:20:15.351Z,97372.03
2018-12-03T11:22:52.715Z,97365.37
2018-12-03T11:25:24.117Z,97355.44
2018-12-03T11:27:58.475Z,97363.23
2018-12-03T11:30:29.722Z,97355.55
2018-12-03T11:32:59.224Z,97347.05
2018-12-03T11:35:28.475Z,97358.77
2018-12-03T11:38:05.854Z,97355.53
2018-12-03T11:40:36.034Z,97361.53
2018-12-03T11:43:06.446Z,97346.40
2018-12-03T11:45:35.922Z,97335.54
2018-12-03T11:48:05.032Z,97336.39
2018-12-03T11:50:34.272Z,97336.70
2018-12-03T11:53:03.066Z,97356.17
2018-12-03T11:55:31.816Z,97350.53
2018-12-03T11:58:02.305Z,97352.41
2018-12-03T12:00:31.707Z,97353.47
2018-12-03T12:03:00.789Z,97363.80
2018-12-03T12:05:29.812Z,97358.66
2018-12-03T12:08:00.914Z,97359.17
2018-12-03T12:10:30.027Z,97356.17
2018-12-03T12:12:59.277Z,97354.05
2018-12-03T12:15:28.327Z,97353.21
2018-12-03T12:17:57.109Z,97346.96
2018-12-03T12:20:26.902Z,97332.67
2018-12-03T12:22:55.708Z,97326.42
2018-12-03T12:25:24.752Z,97319.64
2018-12-03T12:27:53.530Z,97314.48
2018-12-03T12:30:30.230Z,97313.37
2018-12-03T12:32:59.386Z,97309.87
2018-12-03T12:35:28.317Z,97307.55
2018-12-03T12:37:57.242Z,97301.34
2018-12-03T12:40:26.079Z,97304.41
2018-12-03T12:42:55.791Z,97297.42
2018-12-03T12:45:25.694Z,97290.92
2018-12-03T12:47:54.754Z,97287.91
2018-12-03T12:50:23.789Z,97276.25
2018-12-03T12:52:52.611Z,97282.73
2018-12-03T12:55:21.612Z,97284.92
2018-12-03T12:57:50.571Z,97292.27
2018-12-03T13:00:20.172Z,97291.98
2018-12-03T13:02:51.148Z,97303.96
2018-12-03T13:05:20.181Z,97302.30
2018-12-03T13:07:49.237Z,97300.39
2018-12-03T13:10:18.840Z,97299.79
2018-12-03T13:12:47.823Z,97301.93
2018-12-03T13:15:17.630Z,97299.72
2018-12-03T13:17:47.246Z,97294.38
2018-12-03T13:20:20.642Z,97288.20
2018-12-03T13:22:51.725Z,97299.53
2018-12-03T13:25:20.779Z,97295.66
2018-12-03T13:27:49.880Z,97297.83
2018-12-03T13:30:18.940Z,97296.73
2018-12-03T13:32:48.170Z,97295.91
2018-12-03T13:35:17.847Z,97289.70
2018-12-03T13:37:47.215Z,97285.58
2018-12-03T13:40:16.307Z,97282.84
2018-12-03T13:42:46.165Z,97285.72
2018-12-03T13:45:15.976Z,97288.45
2018-12-03T13:47:45.219Z,97283.81
2018-12-03T13:50:14.370Z,97293.82
2018-12-03T13:52:44.216Z,97290.12
2018-12-03T13:55:13.242Z,97294.46
2018-12-03T13:57:42.065Z,97296.87
2018-12-03T14:00:11.916Z,97301.75
2018-12-03T14:02:41.043Z,97301.95
2018-12-03T14:05:11.192Z,97307.44
2018-12-03T14:07:40.593Z,97314.19
2018-12-03T14:10:11.323Z,97321.47
2018-12-03T14:12:40.662Z,97317.36
2018-12-03T14:15:11.887Z,97313.90
2018-12-03T14:17:40.835Z,97312.55
2018-12-03T14:20:10.865Z,97313.42
2018-12-03T14:22:39.948Z,97320.41
2018-12-03T14:25:10.815Z,97328.17
2018-12-03T14:27:39.768Z,97335.13
2018-12-03T14:30:10.124Z,97343.20
2018-12-03T14:32:39.207Z,97336.66
2018-12-03T14:35:09.352Z,97324.20
2018-12-03T14:37:38.664Z,97330.48
2018-12-03T14:40:07.630Z,97332.63
2018-12-03T14:42:36.915Z,97329.10
2018-12-03T14:45:07.704Z,97325.05
2018-12-03T14:47:40.070Z,97330.98
2018-12-03T14:50:11.739Z,97331.52
2018-12-03T14:52:41.064Z,97329.61
2018-12-03T14:55:11.346Z,97331.19
2018-12-03T14:57:40.920Z,97338.21
2018-12-03T15:00:12.373Z,97338.97
2018-12-03T15:02:41.402Z,97341.97
2018-12-03T15:05:11.261Z,97346.78
2018-12-03T15:07:40.099Z,97340.30
2018-12-03T15:10:09.855Z,97343.29
2018-12-03T15:12:39.072Z,97350.30
2018-12-03T15:15:09.284Z,97345.99
2018-12-03T15:17:40.398Z,97350.02
2018-12-03T15:20:10.988Z,97351.56
2018-12-03T15:22:40.980Z,97339.94
2018-12-03T15:25:11.222Z,97348.83
2018-12-03T15:27:44.303Z,97335.59
2018-12-03T15:30:14.235Z,97340.95
2018-12-03T15:32:43.206Z,97340.13
2018-12-03T15:35:12.451Z,97337.44
2018-12-03T15:37:41.777Z,97334.47
2018-12-03T15:40:10.861Z,97339.08
2018-12-03T15:42:39.785Z,97343.39
2018-12-03T15:45:09.824Z,97346.63
2018-12-03T15:47:40.277Z,97346.91
2018-12-03T15:50:10.180Z,97344.74
2018-12-03T15:52:39.927Z,97348.53
2018-12-03T15:55:09.766Z,97352.31
2018-12-03T15:57:40.762Z,97344.18
2018-12-03T16:00:11.457Z,97347.67
2018-12-03T16:02:40.332Z,97356.89
2018-12-03T16:08:48.163Z,97372.05
2018-12-03T16:17:34.893Z,97367.06
2018-12-03T16:20:12.607Z,97355.69
2018-12-03T16:22:42.409Z,97345.42
2018-12-03T16:25:11.807Z,97347.30
2018-12-03T16:27:41.189Z,97349.47
2018-12-03T16:30:12.499Z,97343.25
2018-12-03T16:32:41.940Z,97339.46
2018-12-03T16:35:12.211Z,97343.52
2018-12-03T16:37:41.765Z,97350.78
2018-12-03T16:40:11.161Z,97338.11
2018-12-03T16:42:40.736Z,97350.52
2018-12-03T16:45:11.345Z,97358.09
2018-12-03T16:47:40.420Z,97352.95
2018-12-03T16:50:11.440Z,97355.92
2018-12-03T16:52:42.261Z,97354.61
2018-12-03T16:55:12.430Z,97352.17
2018-12-03T16:57:41.818Z,97344.34
2018-12-03T17:00:18.478Z,97349.70
2018-12-03T17:02:47.638Z,97350.00
2018-12-03T17:05:18.588Z,97348.91
2018-12-03T17:07:47.952Z,97342.16
2018-12-03T17:10:17.502Z,97335.94
2018-12-03T17:12:47.318Z,97334.06
2018-12-03T17:15:19.488Z,97316.78
2018-12-03T17:17:50.931Z,97302.98
2018-12-03T17:20:25.133Z,97295.67
2018-12-03T17:22:55.045Z,97279.48
2018-12-03T17:25:25.223Z,97286.52
2018-12-03T17:27:57.621Z,97267.60
2018-12-03T17:30:27.627Z,97260.30
2018-12-03T17:32:56.394Z,97264.08
2018-12-03T17:35:25.655Z,97273.00
2018-12-03T17:37:55.501Z,97256.80
2018-12-03T17:40:27.328Z,97249.80
2018-12-03T17:42:57.342Z,97242.48
2018-12-03T17:45:28.425Z,97242.25
2018-12-03T17:47:58.892Z,97242.25
2018-12-03T17:50:29.226Z,97241.47
2018-12-03T17:52:58.118Z,97259.27
2018-12-03T17:55:27.006Z,97254.70
2018-12-03T17:57:58.985Z,97250.09
2018-12-03T18:00:28.653Z,97264.70
2018-12-03T18:03:00.671Z,97259.56
2018-12-03T18:08:20.006Z,97273.36
2018-12-03T18:10:49.801Z,97276.06
2018-12-03T18:13:20.419Z,97274.16
2018-12-03T18:15:50.560Z,97285.24
2018-12-03T18:18:19.866Z,97272.02
2018-12-03T18:20:49.944Z,97277.41
2018-12-03T18:23:19.537Z,97264.77
2018-12-03T18:25:50.904Z,97264.73
2018-12-03T18:28:20.809Z,97278.30
2018-12-03T18:30:51.379Z,97286.39
2018-12-03T18:33:20.842Z,97301.54
2018-12-03T18:35:50.233Z,97310.17
2018-12-03T18:38:19.621Z,97300.16
2018-12-03T18:40:48.866Z,97315.04
2018-12-03T18:43:18.464Z,97318.56
2018-12-03T18:45:47.922Z,97315.01
2018-12-03T18:48:17.378Z,97312.01
2018-12-03T18:50:46.442Z,97317.14
2018-12-03T18:53:15.934Z,97309.84
2018-12-03T18:55:45.352Z,97310.89
2018-12-03T18:58:14.449Z,97310.59
2018-12-03T19:00:43.981Z,97297.63
2018-12-03T19:03:13.404Z,97293.02
2018-12-03T19:05:42.534Z,97299.20
2018-12-03T19:08:11.861Z,97305.69
2018-12-03T19:10:40.905Z,97295.67
2018-12-03T19:13:09.981Z,97294.59
2018-12-03T19:15:40.040Z,97308.34
2018-12-03T19:18:09.408Z,97319.14
2018-12-03T19:20:38.419Z,97327.24
2018-12-03T19:23:07.788Z,97319.14
2018-12-03T19:25:38.116Z,97331.29
2018-12-03T19:28:07.691Z,97336.72
2018-12-03T19:30:37.401Z,97344.00
2018-12-03T19:33:06.852Z,97341.86
2018-12-03T19:35:39.172Z,97342.65
2018-12-03T19:41:36.661Z,97345.61
2018-12-03T19:44:22.465Z,97323.16
2018-12-03T19:46:52.474Z,97319.37
2018-12-03T19:49:22.226Z,97318.84
2018-12-03T19:51:51.848Z,97308.09
2018-12-03T19:54:21.586Z,97307.30
2018-12-03T19:56:50.951Z,97295.41
2018-12-03T19:59:20.772Z,97282.78
2018-12-03T20:01:50.725Z,97279.55
2018-12-03T20:04:27.027Z,97283.37
2018-12-03T20:06:56.695Z,97285.51
2018-12-03T20:09:29.584Z,97276.62
2018-12-03T20:12:00.607Z,97287.71
2018-12-03T20:14:30.772Z,97277.94
2018-12-03T20:17:00.811Z,97281.92
2018-12-03T20:19:30.577Z,97288.89
2018-12-03T20:22:01.976Z,97291.59
2018-12-03T20:24:31.834Z,97295.37
2018-12-03T20:27:02.819Z,97308.87
2018-12-03T20:29:32.619Z,97305.38
2018-12-03T20:32:02.824Z,97303.17
2018-12-03T20:34:32.478Z,97289.16
2018-12-03T20:37:02.751Z,97286.91
2018-12-03T20:39:35.152Z,97283.69
2018-12-03T20:42:04.999Z,97287.17
2018-12-03T20:44:36.480Z,97292.00
2018-12-03T20:47:06.531Z,97275.25
2018-12-03T20:49:36.906Z,97274.17
2018-12-03T20:52:07.922Z,97272.81
2018-12-03T20:54:37.917Z,97265.55
2018-12-03T20:57:07.849Z,97261.50
2018-12-03T20:59:37.693Z,97260.12
2018-12-03T21:02:11.437Z,97266.89
2018-12-03T21:04:42.157Z,97259.63
2018-12-03T21:07:11.928Z,97261.77
2018-12-03T21:09:41.523Z,97260.97
2018-12-03T21:12:11.343Z,97254.23
2018-12-03T21:14:41.350Z,97258.84
2018-12-03T21:17:10.737Z,97257.42
2018-12-03T21:19:40.304Z,97269.34
2018-12-03T21:22:10.179Z,97272.52
2018-12-03T21:24:40.074Z,97282.59
2018-12-03T21:27:10.164Z,97283.34
2018-12-03T21:29:40.126Z,97285.78
2018-12-03T21:32:09.771Z,97285.56
2018-12-03T21:34:39.102Z,97281.77
2018-12-03T21:37:08.604Z,97281.52
2018-12-03T21:39:37.926Z,97289.61
2018-12-03T21:42:08.840Z,97282.34
2018-12-03T21:44:38.720Z,97292.04
2018-12-03T21:47:08.404Z,97289.87
2018-12-03T21:49:38.607Z,97280.69
2018-12-03T21:52:08.248Z,97271.77
2018-12-03T21:54:37.382Z,97273.37
2018-12-03T21:57:10.739Z,97269.86
2018-12-03T21:59:36.789Z,97283.91
2018-12-03T22:02:06.677Z,97276.08
2018-12-03T22:04:36.958Z,97270.68
2018-12-03T22:07:06.119Z,97274.43
2018-12-03T22:09:43.710Z,97274.16
2018-12-03T22:12:15.674Z,97281.47
2018-12-03T22:14:44.883Z,97279.86
2018-12-03T22:17:13.877Z,97273.91
2018-12-03T22:19:42.906Z,97264.69
2018-12-03T22:22:11.989Z,97257.37
2018-12-03T22:24:41.134Z,97265.51
2018-12-03T22:27:10.774Z,97269.03
2018-12-03T22:29:40.320Z,97267.13
2018-12-03T22:32:11.005Z,97271.43
2018-12-03T22:34:41.041Z,97265.52
2018-12-03T22:37:09.954Z,97264.09
2018-12-03T22:39:40.170Z,97268.77
2018-12-03T22:42:10.247Z,97267.34
2018-12-03T22:44:39.850Z,97269.78
2018-12-03T22:47:09.091Z,97258.42
2018-12-03T22:49:38.785Z,97248.80
2018-12-03T22:52:08.249Z,97249.55
2018-12-03T22:54:38.147Z,97245.54
2018-12-03T22:57:07.714Z,97238.50
2018-12-03T22:59:37.129Z,97232.84
2018-12-03T23:02:06.431Z,97238.50
2018-12-03T23:04:36.034Z,97252.28
2018-12-03T23:07:05.392Z,97245.20
2018-12-03T23:09:34.845Z,97254.48
2018-12-03T23:12:04.772Z,97249.59
2018-12-03T23:14:34.457Z,97235.84
2018-12-03T23:17:03.584Z,97236.66
2018-12-03T23:19:32.561Z,97241.53
2018-12-03T23:22:01.547Z,97243.44
2018-12-03T23:24:30.544Z,97236.39
2018-12-03T23:26:59.508Z,97233.44
2018-12-03T23:29:28.471Z,97228.04
2018-12-03T23:31:57.691Z,97230.17
2018-12-03T23:34:27.305Z,97218.56
2018-12-03T23:36:56.723Z,97210.44
2018-12-03T23:39:25.425Z,97217.77
2018-12-03T23:41:54.239Z,97213.47
2018-12-03T23:44:23.541Z,97218.23
2018-12-03T23:46:52.886Z,97213.23
2018-12-03T23:49:27.998Z,97211.88
2018-12-03T23:52:16.508Z,97214.05
2018-12-03T23:55:25.818Z,97224.00
2018-12-03T23:58:02.644Z,97223.47
